createdAt,value
2022-12-25T00:01:52.940Z,-4.14
2022-12-25T00:04:20.877Z,-4.15
2022-12-25T00:06:49.621Z,-4.14
2022-12-25T00:09:17.591Z,-4.18
2022-12-25T00:11:45.473Z,-4.14
2022-12-25T00:14:13.268Z,-4.17
2022-12-25T00:16:42.084Z,-4.20
2022-12-25T00:19:11.389Z,-4.20
2022-12-25T00:21:39.454Z,-4.16
2022-12-25T00:24:07.884Z,-4.14
2022-12-25T00:26:35.605Z,-4.22
2022-12-25T00:29:03.408Z,-4.20
2022-12-25T00:31:31.333Z,-4.21
2022-12-25T00:33:59.400Z,-4.29
2022-12-25T00:36:28.580Z,-4.38
2022-12-25T00:38:56.523Z,-4.32
2022-12-25T00:41:39.198Z,-4.37
2022-12-25T00:44:07.313Z,-4.39
2022-12-25T00:46:38.208Z,-4.39
2022-12-25T00:49:06.536Z,-4.42
2022-12-25T00:51:35.889Z,-4.40
2022-12-25T00:54:03.851Z,-4.36
2022-12-25T00:56:31.683Z,-4.30
2022-12-25T00:59:01.952Z,-4.25
2022-12-25T01:01:30.157Z,-4.28
2022-12-25T01:03:58.255Z,-4.29
2022-12-25T01:06:27.078Z,-4.23
2022-12-25T01:09:14.513Z,-4.20
2022-12-25T01:11:42.337Z,-4.08
2022-12-25T01:14:10.228Z,-4.03
2022-12-25T01:16:38.492Z,-4.09
2022-12-25T01:19:07.014Z,-4.10
2022-12-25T01:21:34.835Z,-4.10
2022-12-25T01:24:04.232Z,-4.12
2022-12-25T01:26:32.377Z,-4.10
2022-12-25T01:29:00.106Z,-4.11
2022-12-25T01:31:27.988Z,-4.07
2022-12-25T01:33:55.869Z,-4.04
2022-12-25T01:36:26.470Z,-3.92
2022-12-25T01:38:55.109Z,-3.87
2022-12-25T01:41:25.859Z,-3.83
2022-12-25T01:44:05.938Z,-3.86
2022-12-25T01:46:35.613Z,-3.88
2022-12-25T01:49:07.567Z,-3.77
2022-12-25T01:51:40.175Z,-3.78
2022-12-25T01:54:12.807Z,-3.81
2022-12-25T01:56:44.781Z,-3.91
2022-12-25T01:59:17.108Z,-3.80
2022-12-25T02:01:45.508Z,-3.72
2022-12-25T02:04:20.668Z,-3.68
2022-12-25T02:06:49.629Z,-3.69
2022-12-25T02:09:17.450Z,-3.66
2022-12-25T02:11:59.032Z,-3.72
2022-12-25T02:14:31.701Z,-3.79
2022-12-25T02:17:07.752Z,-3.77
2022-12-25T02:19:59.263Z,-3.67
2022-12-25T02:22:39.704Z,-3.65
2022-12-25T02:25:22.814Z,-3.64
2022-12-25T02:28:11.475Z,-3.63
2022-12-25T02:30:43.869Z,-3.75
2022-12-25T02:33:34.248Z,-3.77
2022-12-25T02:36:08.632Z,-3.84
2022-12-25T02:38:59.833Z,-3.80
2022-12-25T02:41:29.694Z,-3.80
2022-12-25T02:44:19.985Z,-3.77
2022-12-25T02:47:05.747Z,-3.79
2022-12-25T02:49:53.398Z,-3.85
2022-12-25T02:52:42.318Z,-3.86
2022-12-25T02:55:31.754Z,-3.80
2022-12-25T02:58:22.301Z,-3.84
2022-12-25T03:01:14.093Z,-3.82
2022-12-25T03:04:02.897Z,-3.91
2022-12-25T03:06:46.591Z,-3.89
2022-12-25T03:09:35.774Z,-3.94
2022-12-25T03:12:12.231Z,-4.02
2022-12-25T03:14:57.784Z,-3.92
2022-12-25T03:17:27.424Z,-4.00
2022-12-25T03:20:13.179Z,-4.01
2022-12-25T03:23:02.465Z,-3.98
2022-12-25T03:25:48.212Z,-4.07
2022-12-25T03:28:16.261Z,-4.01
2022-12-25T03:31:05.667Z,-4.09
2022-12-25T03:34:09.067Z,-4.03
2022-12-25T03:36:49.694Z,-4.11
2022-12-25T03:39:40.476Z,-4.08
2022-12-25T03:42:26.723Z,-4.09
2022-12-25T03:45:21.259Z,-4.02
2022-12-25T03:48:11.926Z,-4.09
2022-12-25T03:51:03.454Z,-4.17
2022-12-25T03:53:51.976Z,-4.15
2022-12-25T03:56:38.758Z,-4.46
2022-12-25T03:59:24.480Z,-4.11
2022-12-25T04:02:11.025Z,-4.23
2022-12-25T04:04:56.196Z,-4.35
2022-12-25T04:07:43.376Z,-4.30
2022-12-25T04:10:30.244Z,-4.26
2022-12-25T04:13:15.729Z,-4.27
2022-12-25T04:16:01.324Z,-4.30
2022-12-25T04:18:46.503Z,-4.32
2022-12-25T04:21:31.877Z,-4.25
2022-12-25T04:24:18.656Z,-4.19
2022-12-25T04:27:03.950Z,-4.22
2022-12-25T04:29:49.272Z,-4.20
2022-12-25T04:32:34.583Z,-4.25
2022-12-25T04:35:20.531Z,-4.18
2022-12-25T04:37:48.585Z,-4.25
2022-12-25T04:40:18.006Z,-4.22
2022-12-25T04:42:46.041Z,-4.20
2022-12-25T04:45:13.852Z,-4.25
2022-12-25T04:47:41.774Z,-4.17
2022-12-25T04:50:10.393Z,-4.19
2022-12-25T04:52:40.177Z,-4.15
2022-12-25T04:55:09.844Z,-4.15
2022-12-25T04:57:39.210Z,-4.12
2022-12-25T05:00:08.975Z,-4.20
2022-12-25T05:02:37.177Z,-4.17
2022-12-25T05:05:05.802Z,-4.08
2022-12-25T05:07:34.185Z,-4.11
2022-12-25T05:10:02.069Z,-4.05
2022-12-25T05:12:30.122Z,-4.01
2022-12-25T05:14:59.257Z,-4.00
2022-12-25T05:17:27.073Z,-3.99
2022-12-25T05:19:54.929Z,-4.06
2022-12-25T05:22:22.784Z,-4.02
2022-12-25T05:24:50.761Z,-4.00
2022-12-25T05:27:18.560Z,-4.01
2022-12-25T05:29:46.268Z,-4.03
2022-12-25T05:32:15.526Z,-4.02
2022-12-25T05:34:43.392Z,-4.09
2022-12-25T05:37:11.366Z,-4.24
2022-12-25T05:39:39.099Z,-4.28
2022-12-25T05:42:07.058Z,-4.25
2022-12-25T05:44:34.838Z,-4.22
2022-12-25T05:47:02.595Z,-4.35
2022-12-25T05:49:32.018Z,-4.42
2022-12-25T05:51:59.830Z,-4.45
2022-12-25T05:54:27.585Z,-4.43
2022-12-25T05:56:55.497Z,-4.35
2022-12-25T05:59:23.315Z,-4.37
2022-12-25T06:01:51.236Z,-4.42
2022-12-25T06:04:19.161Z,-4.40
2022-12-25T06:06:48.338Z,-4.32
2022-12-25T06:09:16.164Z,-4.31
2022-12-25T06:11:43.939Z,-4.18
2022-12-25T06:14:13.004Z,-4.29
2022-12-25T06:16:40.925Z,-4.27
2022-12-25T06:19:09.454Z,-4.27
2022-12-25T06:21:37.238Z,-4.32
2022-12-25T06:24:06.950Z,-4.21
2022-12-25T06:26:34.858Z,-4.14
2022-12-25T06:29:03.564Z,-4.19
2022-12-25T06:31:31.847Z,-4.30
2022-12-25T06:34:00.048Z,-4.31
2022-12-25T06:36:29.345Z,-4.56
2022-12-25T06:38:57.846Z,-4.55
2022-12-25T06:41:28.874Z,-4.60
2022-12-25T06:43:58.104Z,-4.51
2022-12-25T06:46:28.330Z,-4.55
2022-12-25T06:48:56.181Z,-4.42
2022-12-25T06:51:25.712Z,-4.37
2022-12-25T06:53:55.085Z,-4.45
2022-12-25T06:56:25.283Z,-4.39
2022-12-25T06:58:56.327Z,-4.40
2022-12-25T07:01:28.078Z,-4.50
2022-12-25T07:03:58.010Z,-4.59
2022-12-25T07:06:26.013Z,-4.51
2022-12-25T07:08:53.880Z,-4.52
2022-12-25T07:11:21.939Z,-4.79
2022-12-25T07:13:49.862Z,-4.42
2022-12-25T07:16:19.107Z,-4.39
2022-12-25T07:18:47.244Z,-4.45
2022-12-25T07:21:19.022Z,-4.48
2022-12-25T07:23:48.722Z,-4.47
2022-12-25T07:26:17.524Z,-4.55
2022-12-25T07:28:45.674Z,-4.45
2022-12-25T07:31:15.729Z,-4.41
2022-12-25T07:33:45.317Z,-4.39
2022-12-25T07:36:14.041Z,-4.54
2022-12-25T07:38:42.321Z,-4.58
2022-12-25T07:41:11.165Z,-4.49
2022-12-25T07:43:39.038Z,-4.51
2022-12-25T07:46:07.503Z,-4.57
2022-12-25T07:48:36.611Z,-4.53
2022-12-25T07:51:07.562Z,-4.48
2022-12-25T07:53:38.282Z,-4.55
2022-12-25T07:56:08.413Z,-4.64
2022-12-25T07:58:36.425Z,-4.65
2022-12-25T08:01:06.441Z,-4.62
2022-12-25T08:03:35.247Z,-4.56
2022-12-25T08:06:06.032Z,-4.35
2022-12-25T08:08:34.720Z,-4.36
2022-12-25T08:11:03.142Z,-4.38
2022-12-25T08:13:32.067Z,-4.41
2022-12-25T08:16:00.624Z,-4.46
2022-12-25T08:18:30.392Z,-4.30
2022-12-25T08:21:02.924Z,-4.21
2022-12-25T08:23:32.348Z,-4.21
2022-12-25T08:26:05.019Z,-4.16
2022-12-25T08:28:34.726Z,-4.25
2022-12-25T08:31:07.660Z,-4.27
2022-12-25T08:33:36.088Z,-4.15
2022-12-25T08:36:05.410Z,-4.17
2022-12-25T08:38:34.562Z,-4.09
2022-12-25T08:41:02.781Z,-4.15
2022-12-25T08:43:30.715Z,-4.15
2022-12-25T08:45:58.535Z,-4.17
2022-12-25T08:48:26.798Z,-3.97
2022-12-25T08:50:54.849Z,-3.95
2022-12-25T08:53:23.338Z,-4.12
2022-12-25T08:55:58.201Z,-4.25
2022-12-25T08:58:26.676Z,-4.20
2022-12-25T09:00:54.954Z,-4.01
2022-12-25T09:03:23.251Z,-4.00
2022-12-25T09:05:51.542Z,-4.02
2022-12-25T09:08:19.740Z,-4.03
2022-12-25T09:10:47.527Z,-3.83
2022-12-25T09:13:16.772Z,-3.83
2022-12-25T09:15:44.693Z,-3.76
2022-12-25T09:18:12.663Z,-3.82
2022-12-25T09:20:40.429Z,-3.78
2022-12-25T09:23:13.487Z,-3.75
2022-12-25T09:25:42.128Z,-3.85
2022-12-25T09:28:09.906Z,-3.81
2022-12-25T09:30:41.607Z,-3.63
2022-12-25T09:33:09.633Z,-3.84
2022-12-25T09:35:37.471Z,-3.89
2022-12-25T09:38:05.338Z,-3.78
2022-12-25T09:40:33.836Z,-3.79
2022-12-25T09:43:02.646Z,-3.89
2022-12-25T09:45:35.967Z,-3.79
2022-12-25T09:48:06.310Z,-3.85
2022-12-25T09:50:42.940Z,-3.80
2022-12-25T09:53:16.947Z,-3.71
2022-12-25T09:55:51.471Z,-3.58
2022-12-25T09:58:19.234Z,-3.37
2022-12-25T10:00:52.403Z,-3.30
2022-12-25T10:03:37.654Z,-3.28
2022-12-25T10:06:20.047Z,-3.41
2022-12-25T10:09:03.967Z,-3.40
2022-12-25T10:11:47.444Z,-3.46
2022-12-25T10:14:24.946Z,-3.44
2022-12-25T10:17:04.294Z,-3.38
2022-12-25T10:19:42.232Z,-3.29
2022-12-25T10:22:14.843Z,-3.14
2022-12-25T10:24:49.937Z,-3.07
2022-12-25T10:27:21.075Z,-3.00
2022-12-25T10:29:53.321Z,-2.96
2022-12-25T10:32:23.311Z,-3.13
2022-12-25T10:34:52.709Z,-3.03
2022-12-25T10:37:20.406Z,-3.16
2022-12-25T10:39:48.188Z,-3.15
2022-12-25T10:42:32.270Z,-3.10
2022-12-25T10:45:02.364Z,-2.99
2022-12-25T10:47:32.667Z,-2.86
2022-12-25T10:50:08.666Z,-2.63
2022-12-25T10:52:36.867Z,-2.67
2022-12-25T10:55:12.580Z,-2.52
2022-12-25T10:57:47.140Z,-2.44
2022-12-25T11:00:22.003Z,-2.42
2022-12-25T11:02:50.981Z,-2.42
2022-12-25T11:05:29.251Z,-2.74
2022-12-25T11:07:59.547Z,-2.63
2022-12-25T11:10:31.410Z,-2.83
2022-12-25T11:13:01.131Z,-2.88
2022-12-25T11:15:38.830Z,-2.60
2022-12-25T11:18:20.081Z,-2.73
2022-12-25T11:20:54.159Z,-2.77
2022-12-25T11:23:24.116Z,-2.52
2022-12-25T11:26:00.272Z,-2.44
2022-12-25T11:28:29.823Z,-2.51
2022-12-25T11:31:02.376Z,-2.83
2022-12-25T11:33:36.051Z,-2.97
2022-12-25T11:36:14.831Z,-3.07
2022-12-25T11:38:42.602Z,-2.85
2022-12-25T11:41:11.542Z,-2.88
2022-12-25T11:43:45.472Z,-2.70
2022-12-25T11:46:19.135Z,-2.67
2022-12-25T11:48:56.044Z,-2.64
2022-12-25T11:51:32.884Z,-2.75
2022-12-25T11:54:06.114Z,-2.86
2022-12-25T11:56:33.975Z,-3.00
2022-12-25T11:59:08.086Z,-2.85
2022-12-25T12:01:44.022Z,-2.78
2022-12-25T12:04:25.814Z,-2.81
2022-12-25T12:07:04.679Z,-3.00
2022-12-25T12:09:45.370Z,-2.91
2022-12-25T12:12:20.346Z,-2.92
2022-12-25T12:14:54.762Z,-2.91
2022-12-25T12:17:22.782Z,-3.12
2022-12-25T12:19:50.619Z,-3.11
2022-12-25T12:22:23.313Z,-3.16
2022-12-25T12:24:57.041Z,-3.19
2022-12-25T12:27:28.590Z,-3.14
2022-12-25T12:29:58.887Z,-3.32
2022-12-25T12:32:35.420Z,-3.34
2022-12-25T12:35:15.763Z,-3.39
2022-12-25T12:37:47.427Z,-3.49
2022-12-25T12:40:30.235Z,-3.67
2022-12-25T12:42:58.295Z,-3.74
2022-12-25T12:45:29.424Z,-3.80
2022-12-25T12:47:58.721Z,-3.87
2022-12-25T12:50:33.201Z,-3.91
2022-12-25T12:53:18.100Z,-3.87
2022-12-25T12:55:46.311Z,-3.83
2022-12-25T12:58:27.813Z,-3.82
2022-12-25T13:01:06.386Z,-3.80
2022-12-25T13:03:44.901Z,-3.79
2022-12-25T13:06:18.422Z,-3.79
2022-12-25T13:08:59.993Z,-3.78
2022-12-25T13:11:29.983Z,-3.74
2022-12-25T13:14:01.671Z,-3.69
2022-12-25T13:16:34.703Z,-3.66
2022-12-25T13:19:08.463Z,-3.57
2022-12-25T13:21:37.082Z,-3.61
2022-12-25T13:24:17.899Z,-3.51
2022-12-25T13:26:45.790Z,-3.56
2022-12-25T13:29:23.743Z,-3.69
2022-12-25T13:31:51.874Z,-3.77
2022-12-25T13:34:24.585Z,-3.85
2022-12-25T13:36:52.480Z,-3.87
2022-12-25T13:39:23.552Z,-3.96
2022-12-25T13:42:10.507Z,-4.06
2022-12-25T13:44:45.464Z,-4.13
2022-12-25T13:47:27.215Z,-4.20
2022-12-25T13:49:57.269Z,-4.23
2022-12-25T13:52:33.369Z,-4.32
2022-12-25T13:55:04.393Z,-4.46
2022-12-25T13:57:36.071Z,-4.51
2022-12-25T14:00:06.122Z,-4.50
2022-12-25T14:02:38.276Z,-4.58
2022-12-25T14:05:25.009Z,-4.79
2022-12-25T14:07:53.673Z,-4.85
2022-12-25T14:10:24.132Z,-5.04
2022-12-25T14:12:54.532Z,-4.98
2022-12-25T14:15:23.918Z,-5.02
2022-12-25T14:17:53.278Z,-5.08
2022-12-25T14:20:26.236Z,-5.13
2022-12-25T14:22:56.481Z,-5.20
2022-12-25T14:25:30.648Z,-5.17
2022-12-25T14:27:58.715Z,-5.13
2022-12-25T14:30:30.032Z,-5.03
2022-12-25T14:32:59.072Z,-5.00
2022-12-25T14:35:27.042Z,-5.00
2022-12-25T14:38:01.288Z,-5.04
2022-12-25T14:40:32.221Z,-4.99
2022-12-25T14:43:01.901Z,-4.91
2022-12-25T14:45:32.621Z,-4.89
2022-12-25T14:48:04.225Z,-4.81
2022-12-25T14:50:37.319Z,-4.79
2022-12-25T14:53:05.679Z,-4.71
2022-12-25T14:55:34.943Z,-4.69
2022-12-25T14:58:05.557Z,-4.63
2022-12-25T15:00:36.548Z,-4.61
2022-12-25T15:03:07.707Z,-4.62
2022-12-25T15:05:38.108Z,-4.70
2022-12-25T15:08:20.637Z,-4.75
2022-12-25T15:11:00.659Z,-4.95
2022-12-25T15:13:30.650Z,-4.97
2022-12-25T15:16:02.797Z,-5.08
2022-12-25T15:18:36.578Z,-5.11
2022-12-25T15:21:04.493Z,-5.13
2022-12-25T15:23:32.227Z,-5.21
2022-12-25T15:26:01.375Z,-5.24
2022-12-25T15:28:29.141Z,-5.33
2022-12-25T15:30:57.363Z,-5.31
2022-12-25T15:33:25.877Z,-5.35
2022-12-25T15:35:53.650Z,-5.31
2022-12-25T15:38:21.523Z,-5.25
2022-12-25T15:40:49.342Z,-5.27
2022-12-25T15:43:39.844Z,-5.38
2022-12-25T15:46:06.745Z,-5.26
2022-12-25T15:48:34.504Z,-5.19
2022-12-25T15:51:02.257Z,-5.16
2022-12-25T15:53:30.097Z,-5.07
2022-12-25T15:55:58.085Z,-4.90
2022-12-25T15:58:27.281Z,-4.79
2022-12-25T16:00:55.339Z,-4.65
2022-12-25T16:03:23.125Z,-4.60
2022-12-25T16:05:51.286Z,-4.52
2022-12-25T16:08:19.093Z,-4.43
2022-12-25T16:10:47.172Z,-4.35
2022-12-25T16:13:15.318Z,-4.14
2022-12-25T16:15:45.243Z,-4.17
2022-12-25T16:18:13.122Z,-4.15
2022-12-25T16:20:41.036Z,-4.09
2022-12-25T16:23:09.089Z,-4.03
2022-12-25T16:25:36.897Z,-4.04
2022-12-25T16:28:09.568Z,-4.03
2022-12-25T16:30:37.808Z,-4.14
2022-12-25T16:33:07.538Z,-4.22
2022-12-25T16:35:35.643Z,-4.21
2022-12-25T16:38:04.055Z,-4.20
2022-12-25T16:40:32.559Z,-4.15
2022-12-25T16:43:00.722Z,-4.06
2022-12-25T16:45:29.094Z,-3.99
2022-12-25T16:47:57.480Z,-3.93
2022-12-25T16:50:26.639Z,-3.92
2022-12-25T16:52:54.402Z,-3.96
2022-12-25T16:55:27.798Z,-3.98
2022-12-25T16:57:58.002Z,-4.09
2022-12-25T17:00:25.992Z,-3.74
2022-12-25T17:02:54.172Z,-3.72
2022-12-25T17:05:22.444Z,-3.58
2022-12-25T17:07:52.401Z,-3.60
2022-12-25T17:10:21.399Z,-3.48
2022-12-25T17:12:49.539Z,-3.47
2022-12-25T17:15:17.425Z,-3.73
2022-12-25T17:17:45.202Z,-3.47
2022-12-25T17:20:13.871Z,-3.37
2022-12-25T17:22:41.570Z,-3.32
2022-12-25T17:25:11.169Z,-3.26
2022-12-25T17:27:39.138Z,-3.24
2022-12-25T17:30:10.183Z,-3.26
2022-12-25T17:32:38.826Z,-3.52
2022-12-25T17:35:07.260Z,-3.28
2022-12-25T17:37:35.289Z,-3.41
2022-12-25T17:40:03.277Z,-3.53
2022-12-25T17:42:32.465Z,-3.63
2022-12-25T17:45:00.272Z,-3.67
2022-12-25T17:47:28.164Z,-3.79
2022-12-25T17:49:56.050Z,-3.81
2022-12-25T17:52:24.015Z,-3.73
2022-12-25T17:54:51.920Z,-3.62
2022-12-25T17:57:19.784Z,-3.67
2022-12-25T17:59:49.713Z,-3.71
2022-12-25T18:02:17.741Z,-3.69
2022-12-25T18:04:47.280Z,-3.65
2022-12-25T18:07:15.985Z,-3.69
2022-12-25T18:09:43.870Z,-3.67
2022-12-25T18:12:11.693Z,-3.53
2022-12-25T18:14:39.785Z,-3.39
2022-12-25T18:17:09.100Z,-3.22
2022-12-25T18:19:37.065Z,-3.30
2022-12-25T18:22:05.004Z,-3.37
2022-12-25T18:24:33.045Z,-3.32
2022-12-25T18:27:00.988Z,-3.47
2022-12-25T18:29:28.887Z,-3.64
2022-12-25T18:31:56.702Z,-3.82
2022-12-25T18:34:25.944Z,-3.82
2022-12-25T18:36:54.499Z,-3.86
2022-12-25T18:39:22.334Z,-3.78
2022-12-25T18:42:07.787Z,-3.53
2022-12-25T18:44:35.613Z,-3.55
2022-12-25T18:47:03.497Z,-3.56
2022-12-25T18:49:34.452Z,-3.62
2022-12-25T18:52:48.203Z,-3.64
2022-12-25T18:54:51.240Z,-3.45
2022-12-25T18:57:19.202Z,-3.35
2022-12-25T18:59:47.632Z,-3.21
2022-12-25T19:02:16.658Z,-3.17
2022-12-25T19:04:45.985Z,-3.30
2022-12-25T19:07:13.836Z,-3.31
2022-12-25T19:09:41.857Z,-3.23
2022-12-25T19:12:09.646Z,-3.21
2022-12-25T19:14:47.604Z,-3.12
2022-12-25T19:17:16.444Z,-3.07
2022-12-25T19:19:46.009Z,-2.70
2022-12-25T19:22:14.131Z,-2.53
2022-12-25T19:24:42.271Z,-2.12
2022-12-25T19:27:10.055Z,-1.89
2022-12-25T19:29:37.930Z,-1.74
2022-12-25T19:32:06.482Z,-1.67
2022-12-25T19:34:34.279Z,-1.50
2022-12-25T19:37:04.269Z,-1.30
2022-12-25T19:39:32.067Z,-1.22
2022-12-25T19:41:59.823Z,-1.21
2022-12-25T19:44:27.822Z,-1.19
2022-12-25T19:46:55.905Z,-1.15
2022-12-25T19:49:23.716Z,-1.19
2022-12-25T19:51:51.507Z,-1.09
2022-12-25T19:54:21.265Z,-1.03
2022-12-25T19:56:50.163Z,-1.06
2022-12-25T19:59:17.999Z,-1.04
2022-12-25T20:01:47.957Z,-1.07
2022-12-25T20:04:18.127Z,-1.12
2022-12-25T20:06:46.249Z,-1.11
2022-12-25T20:09:19.760Z,-1.21
2022-12-25T20:11:50.328Z,-1.17
2022-12-25T20:14:19.503Z,-1.16
2022-12-25T20:16:47.534Z,-1.06
2022-12-25T20:19:15.942Z,-1.09
2022-12-25T20:21:43.764Z,-1.10
2022-12-25T20:24:11.586Z,-1.05
2022-12-25T20:26:40.045Z,-0.98
2022-12-25T20:29:09.283Z,-0.97
2022-12-25T20:31:37.214Z,-0.91
2022-12-25T20:34:07.703Z,-0.74
2022-12-25T20:36:37.565Z,-0.65
2022-12-25T20:39:08.258Z,-0.62
2022-12-25T20:41:37.509Z,-0.59
2022-12-25T20:44:06.659Z,-0.44
2022-12-25T20:46:36.198Z,-0.46
2022-12-25T20:49:04.260Z,-0.46
2022-12-25T20:51:32.002Z,-0.43
2022-12-25T20:54:00.963Z,-0.46
2022-12-25T20:56:29.998Z,-0.52
2022-12-25T20:59:00.186Z,-0.41
2022-12-25T21:01:30.161Z,-0.41
2022-12-25T21:04:00.424Z,-0.34
2022-12-25T21:06:29.614Z,-0.36
2022-12-25T21:08:57.796Z,-0.34
2022-12-25T21:11:25.757Z,-0.36
2022-12-25T21:13:53.961Z,-0.32
2022-12-25T21:16:23.203Z,-0.28
2022-12-25T21:18:53.206Z,-0.33
2022-12-25T21:21:23.507Z,-0.29
2022-12-25T21:23:52.014Z,-0.38
2022-12-25T21:26:21.538Z,-0.24
2022-12-25T21:28:50.774Z,-0.25
2022-12-25T21:31:19.572Z,-0.25
2022-12-25T21:33:52.931Z,-0.14
2022-12-25T21:36:27.266Z,-0.11
2022-12-25T21:38:57.134Z,-0.10
2022-12-25T21:41:25.593Z,-0.13
2022-12-25T21:43:54.029Z,-0.12
2022-12-25T21:46:22.194Z,-0.10
2022-12-25T21:48:50.192Z,-0.15
2022-12-25T21:51:37.908Z,-0.05
2022-12-25T21:54:08.290Z,0.03
2022-12-25T21:56:43.437Z,0.05
2022-12-25T21:59:15.730Z,0.02
2022-12-25T22:01:44.352Z,0.15
2022-12-25T22:04:13.111Z,0.10
2022-12-25T22:06:59.111Z,0.14
2022-12-25T22:09:28.676Z,0.08
2022-12-25T22:12:14.287Z,0.12
2022-12-25T22:14:56.333Z,0.19
2022-12-25T22:17:44.480Z,0.21
2022-12-25T22:20:15.459Z,0.26
2022-12-25T22:22:43.455Z,0.35
2022-12-25T22:25:13.355Z,0.42
2022-12-25T22:27:42.571Z,0.41
2022-12-25T22:30:13.414Z,0.45
2022-12-25T22:32:41.424Z,0.51
2022-12-25T22:35:10.277Z,0.52
2022-12-25T22:37:39.783Z,0.61
2022-12-25T22:40:09.465Z,0.58
2022-12-25T22:42:38.781Z,0.63
2022-12-25T22:45:09.099Z,0.61
2022-12-25T22:47:36.849Z,0.61
2022-12-25T22:50:04.761Z,0.67
2022-12-25T22:52:32.641Z,0.67
2022-12-25T22:55:00.441Z,0.77
2022-12-25T22:57:28.245Z,0.89
2022-12-25T22:59:57.416Z,0.88
2022-12-25T23:02:25.422Z,0.84
2022-12-25T23:04:53.828Z,0.91
2022-12-25T23:07:21.681Z,0.96
2022-12-25T23:09:49.477Z,1.00
2022-12-25T23:12:31.343Z,1.03
2022-12-25T23:15:00.698Z,1.07
2022-12-25T23:17:46.230Z,1.11
2022-12-25T23:20:32.973Z,1.03
2022-12-25T23:23:18.385Z,1.01
2022-12-25T23:26:03.723Z,1.05
2022-12-25T23:28:50.009Z,1.01
2022-12-25T23:31:21.431Z,1.03
2022-12-25T23:33:49.242Z,1.10
2022-12-25T23:36:17.027Z,1.11
2022-12-25T23:38:44.881Z,1.14
2022-12-25T23:41:12.670Z,1.19
2022-12-25T23:43:40.456Z,1.15
2022-12-25T23:46:08.323Z,1.22
2022-12-25T23:48:37.795Z,1.27
2022-12-25T23:51:05.815Z,1.35
2022-12-25T23:53:34.420Z,1.37
2022-12-25T23:56:02.875Z,1.37
2022-12-25T23:58:31.646Z,1.38
